Amy-c — MKWC7 — position and weather

sailwx.info

Track history (hours):
 
Tides and Currents Weather Stations Pressure Air Temp Water Temp Dewpoint Dewpoint Depression Visibility Wind Speed Wind Dir Waves Ship Positions

Amy-c

Last reported at 2014-Oct-30 15:21 UTC. Time now 2014-Oct-30 17:41 UTC.
Position N 38°29' W 008°56'.

Length 137 m; draft 5.2 m.

Type: Cargo ship. MMSI: 235010170.

Date/timePositionNaut miles runAvg speedWind from/ knotsBaromVisibWave heightAir tempDewpointWater temp
2014-Oct-30 15:21N 38°29' W 008°56'0 0.0
2014-Oct-30 14:24N 38°29' W 008°56'0 0.0
2014-Oct-30 13:33N 38°29' W 008°56'0 0.0
2014-Oct-30 12:30N 38°29' W 008°56'0 0.0
2014-Oct-30 11:33N 38°29' W 008°56'0 0.0
2014-Oct-30 10:31N 38°29' W 008°56'0 0.0
2014-Oct-30 09:31N 38°29' W 008°56'0 0.0
2014-Oct-30 08:25N 38°29' W 008°56'0 0.0
2014-Oct-30 07:31N 38°29' W 008°56'0 0.0
2014-Oct-30 06:19N 38°29' W 008°56'0 0.0
2014-Oct-30 04:28N 38°29' W 008°56'0 0.0
2014-Oct-30 03:31N 38°29' W 008°56'0 0.0
2014-Oct-30 02:22N 38°29' W 008°56'0 0.0
2014-Oct-30 01:31N 38°29' W 008°56'0 0.0
2014-Oct-30 00:31N 38°29' W 008°56'0 0.0
2014-Oct-29 23:31N 38°29' W 008°56'0 0.0
2014-Oct-29 22:31N 38°29' W 008°56'0 0.0
2014-Oct-29 21:31N 38°29' W 008°56'0 0.0
2014-Oct-29 20:28N 38°29' W 008°56'0 0.0
2014-Oct-29 19:31N 38°29' W 008°56'0 0.0
2014-Oct-29 18:28N 38°29' W 008°56'0 0.0
2014-Oct-29 17:31N 38°29' W 008°56'0 0.0
2014-Oct-29 16:28N 38°29' W 008°56'0 0.0
2014-Oct-29 13:04N 38°29' W 008°56'0 0.0
2014-Oct-29 10:28N 38°29' W 008°56'0 0.0
2014-Oct-29 09:28N 38°29' W 008°56'0 0.0
2014-Oct-29 05:28N 38°29' W 008°56'0 0.0
2014-Oct-29 02:31N 38°29' W 008°56'0 0.0
2014-Oct-29 01:31N 38°29' W 008°56'0 0.0
2014-Oct-29 00:31N 38°29' W 008°56'0 0.0
2014-Oct-28 23:28N 38°29' W 008°56'0 0.0
2014-Oct-28 22:28N 38°29' W 008°56'0 0.0
2014-Oct-28 21:31N 38°29' W 008°56'0 0.0
2014-Oct-28 20:19N 38°29' W 008°56'0 0.0
2014-Oct-28 19:28N 38°29' W 008°56'0 0.0
2014-Oct-28 17:33N 38°29' W 008°56'5 5.1
2014-Oct-28 16:34N 38°25' W 008°60'4 4.2
2014-Oct-28 15:34N 38°22' W 009°02'6 6.2
2014-Oct-28 14:34N 38°15' W 009°03'10 9.7
2014-Oct-28 13:33N 38°06' W 009°06'10 9.9
2014-Oct-28 12:33N 37°57' W 009°11'1010.3
2014-Oct-28 11:33N 37°47' W 009°16'1111.0
2014-Oct-28 10:33N 37°38' W 009°23'1212.2
2014-Oct-28 09:33N 37°28' W 009°31'1212.2
2014-Oct-28 08:33N 37°18' W 009°40'1312.8
2014-Oct-28 07:34N 37°06' W 009°48'1413.8
2014-Oct-28 06:34N 36°54' W 009°55'1413.8
2014-Oct-28 05:33N 36°42' W 010°03'1413.9
2014-Oct-28 04:34N 36°29' W 010°10'1414.2
2014-Oct-28 03:33N 36°16' W 010°18'1414.2
2014-Oct-28 02:34N 36°03' W 010°25'1414.2
2014-Oct-28 01:34N 35°51' W 010°33'1414.2
2014-Oct-28 00:33N 35°38' W 010°41'1414.1
2014-Oct-27 23:34N 35°25' W 010°48'1414.0
2014-Oct-27 22:33N 35°13' W 010°56'1414.0
2014-Oct-27 21:33N 35°00' W 011°04'1413.8
2014-Oct-27 20:33N 34°47' W 011°11'1413.7
2014-Oct-27 19:33N 34°35' W 011°18'1413.8
2014-Oct-27 18:33N 34°23' W 011°25'1413.6
2014-Oct-27 17:33N 34°11' W 011°32'1413.6
2014-Oct-27 16:33N 33°58' W 011°39'2713.6
2014-Oct-27 14:33N 33°34' W 011°53'  
Track history (hours):
 
Tides and Currents Weather Stations Pressure Air Temp Water Temp Dewpoint Dewpoint Depression Visibility Wind Speed Wind Dir Waves Ship Positions

Amy-c

Last reported at 2014-Oct-30 15:21 UTC. Time now 2014-Oct-30 17:41 UTC.
Position N 38°29' W 008°56'.

Length 137 m; draft 5.2 m.

Type: Cargo ship. MMSI: 235010170.

Date/timePositionNaut miles runAvg speedWind from/ knotsBaromVisibWave heightAir tempDewpointWater temp
2014-Oct-30 15:21N 38°29' W 008°56'0 0.0
2014-Oct-30 14:24N 38°29' W 008°56'0 0.0
2014-Oct-30 13:33N 38°29' W 008°56'0 0.0
2014-Oct-30 12:30N 38°29' W 008°56'0 0.0
2014-Oct-30 11:33N 38°29' W 008°56'0 0.0
2014-Oct-30 10:31N 38°29' W 008°56'0 0.0
2014-Oct-30 09:31N 38°29' W 008°56'0 0.0
2014-Oct-30 08:25N 38°29' W 008°56'0 0.0
2014-Oct-30 07:31N 38°29' W 008°56'0 0.0
2014-Oct-30 06:19N 38°29' W 008°56'0 0.0
2014-Oct-30 04:28N 38°29' W 008°56'0 0.0
2014-Oct-30 03:31N 38°29' W 008°56'0 0.0
2014-Oct-30 02:22N 38°29' W 008°56'0 0.0
2014-Oct-30 01:31N 38°29' W 008°56'0 0.0
2014-Oct-30 00:31N 38°29' W 008°56'0 0.0
2014-Oct-29 23:31N 38°29' W 008°56'0 0.0
2014-Oct-29 22:31N 38°29' W 008°56'0 0.0
2014-Oct-29 21:31N 38°29' W 008°56'0 0.0
2014-Oct-29 20:28N 38°29' W 008°56'0 0.0
2014-Oct-29 19:31N 38°29' W 008°56'0 0.0
2014-Oct-29 18:28N 38°29' W 008°56'0 0.0
2014-Oct-29 17:31N 38°29' W 008°56'0 0.0
2014-Oct-29 16:28N 38°29' W 008°56'0 0.0
2014-Oct-29 13:04N 38°29' W 008°56'0 0.0
2014-Oct-29 10:28N 38°29' W 008°56'0 0.0
2014-Oct-29 09:28N 38°29' W 008°56'0 0.0
2014-Oct-29 05:28N 38°29' W 008°56'0 0.0
2014-Oct-29 02:31N 38°29' W 008°56'0 0.0
2014-Oct-29 01:31N 38°29' W 008°56'0 0.0
2014-Oct-29 00:31N 38°29' W 008°56'0 0.0
2014-Oct-28 23:28N 38°29' W 008°56'0 0.0
2014-Oct-28 22:28N 38°29' W 008°56'0 0.0
2014-Oct-28 21:31N 38°29' W 008°56'0 0.0
2014-Oct-28 20:19N 38°29' W 008°56'0 0.0
2014-Oct-28 19:28N 38°29' W 008°56'0 0.0
2014-Oct-28 17:33N 38°29' W 008°56'5 5.1
2014-Oct-28 16:34N 38°25' W 008°60'4 4.2
2014-Oct-28 15:34N 38°22' W 009°02'6 6.2
2014-Oct-28 14:34N 38°15' W 009°03'10 9.7
2014-Oct-28 13:33N 38°06' W 009°06'10 9.9
2014-Oct-28 12:33N 37°57' W 009°11'1010.3
2014-Oct-28 11:33N 37°47' W 009°16'1111.0
2014-Oct-28 10:33N 37°38' W 009°23'1212.2
2014-Oct-28 09:33N 37°28' W 009°31'1212.2
2014-Oct-28 08:33N 37°18' W 009°40'1312.8
2014-Oct-28 07:34N 37°06' W 009°48'1413.8
2014-Oct-28 06:34N 36°54' W 009°55'1413.8
2014-Oct-28 05:33N 36°42' W 010°03'1413.9
2014-Oct-28 04:34N 36°29' W 010°10'1414.2
2014-Oct-28 03:33N 36°16' W 010°18'1414.2
2014-Oct-28 02:34N 36°03' W 010°25'1414.2
2014-Oct-28 01:34N 35°51' W 010°33'1414.2
2014-Oct-28 00:33N 35°38' W 010°41'1414.1
2014-Oct-27 23:34N 35°25' W 010°48'1414.0
2014-Oct-27 22:33N 35°13' W 010°56'1414.0
2014-Oct-27 21:33N 35°00' W 011°04'1413.8
2014-Oct-27 20:33N 34°47' W 011°11'1413.7
2014-Oct-27 19:33N 34°35' W 011°18'1413.8
2014-Oct-27 18:33N 34°23' W 011°25'1413.6
2014-Oct-27 17:33N 34°11' W 011°32'1413.6
2014-Oct-27 16:33N 33°58' W 011°39'2713.6
2014-Oct-27 14:33N 33°34' W 011°53'  

Dump ship's entire track history